Terminal Aerodrome Forecast
Issued by NWS Austin/San Antonio, TX

Current Version | Previous Version | Text Only | Print | Product List | Glossary On
Versions: 1 2 3 4 5 6 7 8 9 10 11 12 13
735
FTUS44 KEWX 302334
TAFAUS
TAF
KAUS 302334Z 0100/0206 VRB05KT P6SM FEW250
     FM011200 VRB02KT 4SM BR SCT250
     FM011400 15004KT P6SM SCT250=

USA.gov is the U.S. government's official web portal to all federal, state and local government web resources and services.